This is the latest recevied weather packets stored in our database for station/object JR5YHL-13. If no packets are shown the sender has not sent any weather packets the latest 10 day(s).
| Time | Temp. | Humidity | Pressure | Rain* | Wind** | Luminosity | Snow |
|---|---|---|---|---|---|---|---|
| 1777947260 | 23.89° C | 21% | 1019.8 hPa | 0 mm | - | - | - |
| 1777946662 | 23.89° C | 22% | 1019.9 hPa | 0 mm | - | - | - |
| 1777946064 | 25° C | 18% | 1020 hPa | 0 mm | - | - | - |
| 1777945467 | 25.56° C | 17% | 1020.1 hPa | 0 mm | - | - | - |
| 1777944869 | 25° C | 19% | 1020.1 hPa | 0 mm | - | - | - |
| 1777944271 | 25.56° C | 21% | 1020.1 hPa | 0 mm | - | - | - |
| 1777943674 | 24.44° C | 22% | 1020.2 hPa | 0 mm | - | - | - |
| 1777943076 | 23.33° C | 24% | 1020.3 hPa | 0 mm | - | - | - |
| 1777942478 | 23.89° C | 24% | 1020.2 hPa | 0 mm | - | - | - |
| 1777941880 | 23.33° C | 29% | 1020.3 hPa | 0 mm | - | - | - |
| 1777941282 | 22.78° C | 34% | 1020.3 hPa | 0 mm | - | - | - |
| 1777940685 | 21.67° C | 37% | 1020.3 hPa | 0 mm | - | - | - |
| 1777940087 | 21.11° C | 37% | 1020.3 hPa | 0 mm | - | - | - |
| 1777939489 | 20° C | 44% | 1020.4 hPa | 0 mm | - | - | - |
| 1777938892 | 19.44° C | 48% | 1020.5 hPa | 0 mm | - | - | - |
| 1777938294 | 18.33° C | 55% | 1020.6 hPa | 0 mm | - | - | - |
| 1777937696 | 17.22° C | 59% | 1020.4 hPa | 0 mm | - | - | - |
| 1777937099 | 16.11° C | 64% | 1020.5 hPa | 0 mm | - | - | - |
| 1777936501 | 15° C | 68% | 1020.5 hPa | 0 mm | - | - | - |
| 1777935903 | 15° C | 69% | 1020.6 hPa | 0 mm | - | - | - |
| 1777935306 | 14.44° C | 73% | 1020.7 hPa | 0 mm | - | - | - |
| 1777934708 | 13.89° C | 77% | 1020.6 hPa | 0 mm | - | - | - |
| 1777934110 | 12.78° C | 80% | 1020.7 hPa | 0 mm | - | - | - |
| 1777933512 | 12.78° C | 81% | 1020.8 hPa | 0 mm | - | - | - |
| 1777932915 | 12.78° C | 83% | 1020.9 hPa | 0 mm | - | - | - |
* Rain latest hour (hover to see other rain measurements)
** Current wind speed in m/s (hover to see current wind gust speed)